Terminal Aerodrome Forecast
Issued by NWS

Home | Current Version | Previous Version | Text Only | Print | Product List | Glossary Off
Versions: 1 2 3 4 5 6 7 8 9 10 11 12 13 14 15 16 17 18 19

000
FTUS43 KMPX 010110 AAA
TAFRWF
TAF AMD
KRWF 010110Z 0101/0124 05010KT P6SM SCT025 OVC100
     FM010600 04012G20KT 4SM -SN BR OVC020
     FM010900 02013G22KT 2SM -SN BR OVC010
     FM011300 01013G22KT 5SM -SN BR OVC020
     FM011600 01013G20KT P6SM SCT020=

USA.gov is the U.S. government's official web portal to all federal, state and local government web resources and services.